Bitte eine E-Mail-Adresse für das Benutzerkonto eingeben. Ein Bestätigungscode wird dann an diese verschickt. Sobald der Code vorliegt, kann ein neues Passwort für das Benutzerkonto festgelegt werden.

 

 

 
NEU! ab. 1.4.
Nortel Info 128,740 MHz

WebCam

  
Kamera Halle
Kamera Vorfeld
Wetter EDDS

METAR

EDDS 180750Z 33002KT CAVOK 18/15 Q1022 NOSIG =


TAF

EDDS 180500Z 1806/1906 28005KT CAVOK =


SR/SS

04:19 / 18:30 UTC
(EDSO 18-08-2018)